Terminal Aerodrome Forecast
Issued by NWS

Home | Current Version | Previous Version | Text Only | Print | Product List | Glossary On
Versions: 1 2 3 4 5 6 7 8 9 10 11 12 13 14 15 16
051
FTUS43 KAPX 191121
TAFAPN
TAF
KAPN 191121Z 1912/2012 29004KT P6SM FEW110
     FM191500 30006KT P6SM SCT012
     FM192200 VRB03KT P6SM SCT070
     FM200100 VRB03KT P6SM BKN070=

USA.gov is the U.S. government's official web portal to all federal, state and local government web resources and services.